Disclaimer

Please do not use the information listed here in-flight or in-navigation, as they are not provided to us by the airports but are provided by volunteers, so they might be outdated.

Search


Regions


Airport information page

Radio informations:
Tower (TWR) - 124.4 MHz

Airport informations:
Latitude: 64° 55' 48.22" N
Longitude: 025° 21' 16.43" E
Elevation: 47 feet - 14 meters
Operating hours: N/A
Operating agency: Civil government, landing fees and diplomatic clearance may be required
Timezone: UTC+2(+3DT) - Last Sunday in March to last Sunday in October
Fuel: Jet A1, without icing nhibitor.

100/130 MIL Spec, low lead, aviation gasoline (BLUE)

Runway information:
12/30 - 8205 x 197 feet< - >2501 x 60 meters

Recent METARs:
EFOU 202250Z AUTO 27003KT 250V310 9999 OVC043/// 00/M02 Q1034
EFOU 202320Z AUTO 31005KT 9999 OVC043/// 01/M02 Q1034
EFOU 202350Z AUTO 31005KT 9999 OVC042/// 01/M02 Q1034

Airport on the map: